Time;durP1;ratioP1;P1;durP2;ratioP2;P2;SDS_P1;SDS_P2;PMS_P1;PMS_P2;Temp;Humidity;BMP_temperature;BMP_pressure;BME280_temperature;BME280_humidity;BME280_pressure;Samples;Min_cycle;Max_cycle;Signal;HPM_P1;HPM_P2
2022/05/06 00:01:31;;;;;;;13.87;9.77;;;10.20;99.90;;;;;;2612077;54;20405;-77
2022/05/06 00:03:58;;;;;;;13.07;9.33;;;10.20;99.90;;;;;;2612314;54;20403;-74
2022/05/06 00:06:24;;;;;;;15.30;10.30;;;10.30;99.90;;;;;;2612314;54;20383;-73
2022/05/06 00:08:50;;;;;;;11.73;9.20;;;10.20;99.90;;;;;;2612051;54;20450;-75
2022/05/06 00:11:16;;;;;;;11.07;9.37;;;10.20;99.90;;;;;;2613066;54;20147;-75
2022/05/06 00:13:42;;;;;;;13.30;9.23;;;10.10;99.90;;;;;;2612652;54;20392;-74
2022/05/06 00:16:08;;;;;;;11.00;8.60;;;10.00;99.90;;;;;;2613262;54;20155;-76
2022/05/06 00:18:35;;;;;;;12.73;10.97;;;10.00;99.90;;;;;;2613289;54;20151;-74
2022/05/06 00:21:01;;;;;;;16.90;10.50;;;10.10;99.90;;;;;;2612835;54;20395;-73
2022/05/06 00:23:28;;;;;;;10.53;9.47;;;10.00;99.90;;;;;;2613935;39;20874;-77
2022/05/06 00:25:55;;;;;;;14.37;9.77;;;10.00;99.90;;;;;;2612220;39;20720;-77
2022/05/06 00:28:21;;;;;;;11.03;9.63;;;10.00;99.90;;;;;;2612578;54;20486;-76
2022/05/06 00:30:47;;;;;;;11.27;8.37;;;10.00;99.90;;;;;;2613764;31;20835;-76
2022/05/06 00:33:14;;;;;;;9.00;8.10;;;10.00;99.90;;;;;;2612557;47;20396;-76
2022/05/06 00:35:43;;;;;;;13.60;9.03;;;9.90;99.90;;;;;;2613687;31;20885;-77
2022/05/06 00:38:09;;;;;;;9.73;8.73;;;9.90;99.90;;;;;;2612922;54;20151;-76
2022/05/06 00:40:35;;;;;;;10.37;8.90;;;9.90;99.90;;;;;;2612529;54;20403;-75
2022/05/06 00:43:01;;;;;;;14.37;8.57;;;9.70;99.90;;;;;;2612473;54;20434;-76
2022/05/06 00:45:36;;;;;;;12.20;9.13;;;9.80;99.90;;;;;;2613339;54;20410;-78
2022/05/06 00:48:02;;;;;;;11.50;10.03;;;9.70;99.90;;;;;;2613466;54;20427;-79
2022/05/06 00:50:28;;;;;;;10.87;9.40;;;9.70;99.90;;;;;;2611057;46;20442;-75
2022/05/06 00:52:54;;;;;;;16.00;10.40;;;9.70;99.90;;;;;;2612874;54;20395;-73
2022/05/06 00:55:22;;;;;;;12.07;9.80;;;9.70;99.90;;;;;;2612614;54;20442;-75
2022/05/06 00:57:48;;;;;;;14.87;11.60;;;9.80;99.90;;;;;;2613105;54;20486;-74
2022/05/06 01:00:17;;;;;;;15.70;9.83;;;9.70;99.90;;;;;;2612085;39;20863;-77
2022/05/06 01:02:46;;;;;;;13.00;10.57;;;9.80;99.90;;;;;;2613002;46;20410;-77
2022/05/06 01:05:13;;;;;;;14.50;10.70;;;9.80;99.90;;;;;;2612724;54;20413;-77
2022/05/06 01:07:41;;;;;;;12.40;9.70;;;9.80;99.90;;;;;;2612454;54;20416;-74
2022/05/06 01:10:07;;;;;;;17.40;11.40;;;9.60;99.90;;;;;;2611632;54;20434;-73
2022/05/06 01:12:33;;;;;;;10.93;9.53;;;9.70;99.90;;;;;;2613252;54;20395;-79
2022/05/06 01:15:24;;;;;;;11.03;9.87;;;9.70;99.90;;;;;;2612881;54;20434;-78
2022/05/06 01:17:58;;;;;;;10.50;9.27;;;9.60;99.90;;;;;;2613041;54;20410;-79
2022/05/06 01:20:27;;;;;;;9.90;9.00;;;9.50;99.90;;;;;;2613053;39;20837;-76
2022/05/06 01:22:56;;;;;;;12.00;9.33;;;9.50;99.90;;;;;;2613747;54;20380;-80
2022/05/06 01:25:22;;;;;;;14.10;10.47;;;9.40;99.90;;;;;;2612616;51;21056;-79
2022/05/06 01:27:50;;;;;;;12.20;9.10;;;9.50;99.90;;;;;;2613694;39;21073;-79
2022/05/06 01:30:47;;;;;;;11.73;10.07;;;9.50;99.90;;;;;;2612040;46;21090;-79
2022/05/06 01:33:21;;;;;;;12.47;10.73;;;9.50;99.90;;;;;;2613067;54;20398;-80
2022/05/06 01:35:54;;;;;;;12.00;10.07;;;9.30;99.90;;;;;;2613364;54;20399;-79
2022/05/06 01:38:46;;;;;;;11.53;9.73;;;9.30;99.90;;;;;;2613061;54;20403;-78
2022/05/06 01:41:21;;;;;;;13.20;9.77;;;9.20;99.90;;;;;;2611373;47;20489;-76
2022/05/06 01:44:20;;;;;;;11.77;9.23;;;9.30;99.90;;;;;;2612918;47;20478;-76
2022/05/06 01:46:48;;;;;;;12.37;10.27;;;9.20;99.90;;;;;;2613554;31;20816;-79
2022/05/06 01:49:22;;;;;;;13.17;10.70;;;9.30;99.90;;;;;;2613556;54;20399;-79
2022/05/06 01:51:49;;;;;;;10.87;9.80;;;9.30;99.90;;;;;;2611764;54;20499;-79
2022/05/06 01:54:20;;;;;;;11.10;9.70;;;9.10;99.90;;;;;;2612516;51;20427;-80
2022/05/06 01:56:49;;;;;;;12.00;9.23;;;9.00;99.90;;;;;;2612844;46;20502;-74
2022/05/06 01:59:17;;;;;;;16.03;9.67;;;9.00;99.90;;;;;;2612163;39;20887;-73
2022/05/06 02:01:43;;;;;;;12.37;9.10;;;9.00;99.90;;;;;;2612567;31;20926;-81
2022/05/06 02:06:57;;;;;;;12.47;10.57;;;8.90;99.90;;;;;;2613483;54;20398;-74
2022/05/06 02:09:23;;;;;;;13.30;9.53;;;8.80;99.90;;;;;;2612502;54;20520;-73
2022/05/06 02:11:56;;;;;;;15.47;10.70;;;8.60;99.90;;;;;;2612357;54;20656;-73
2022/05/06 02:14:29;;;;;;;17.20;10.50;;;8.80;99.90;;;;;;2612892;46;20550;-74
2022/05/06 02:17:14;;;;;;;11.40;10.30;;;8.80;99.90;;;;;;2612611;54;20946;-74
2022/05/06 02:20:04;;;;;;;12.30;10.90;;;8.80;99.90;;;;;;2612369;47;20463;-74
2022/05/06 02:22:50;;;;;;;11.30;9.33;;;8.80;99.90;;;;;;2613472;47;20384;-74
2022/05/06 02:25:48;;;;;;;13.10;10.53;;;8.80;99.90;;;;;;2612389;39;21046;-74
2022/05/06 02:28:17;;;;;;;11.50;10.33;;;8.70;99.90;;;;;;2612267;54;20979;-74
2022/05/06 02:33:41;;;;;;;15.07;11.33;;;8.70;99.90;;;;;;2612918;51;20403;-76
2022/05/06 02:36:17;;;;;;;11.63;10.47;;;8.50;99.90;;;;;;2612652;46;20409;-81
2022/05/06 02:38:42;;;;;;;11.90;10.70;;;8.50;99.90;;;;;;2613632;47;20371;-80
2022/05/06 02:41:10;;;;;;;16.50;10.03;;;8.50;99.90;;;;;;2612535;47;20414;-79
2022/05/06 02:43:45;;;;;;;11.30;9.87;;;8.50;99.90;;;;;;2612745;54;20381;-76
2022/05/06 02:46:13;;;;;;;11.00;9.67;;;8.50;99.90;;;;;;2612445;54;20413;-76
2022/05/06 02:48:39;;;;;;;11.77;9.77;;;8.50;99.90;;;;;;2611990;47;20495;-79
2022/05/06 02:51:08;;;;;;;11.53;9.80;;;8.60;99.90;;;;;;2612060;53;20153;-81
2022/05/06 02:53:36;;;;;;;11.60;10.33;;;8.60;99.90;;;;;;2612693;46;20409;-80
2022/05/06 02:56:02;;;;;;;11.27;10.17;;;8.60;99.90;;;;;;2612743;47;20457;-73
2022/05/06 02:58:38;;;;;;;15.50;10.37;;;8.50;99.90;;;;;;2612195;54;20379;-73
2022/05/06 03:01:04;;;;;;;11.70;9.83;;;8.50;99.90;;;;;;2612981;54;20421;-77
2022/05/06 03:03:33;;;;;;;14.73;9.90;;;8.50;99.90;;;;;;2612517;54;20407;-77
2022/05/06 03:06:02;;;;;;;12.77;11.33;;;8.40;99.90;;;;;;2611859;39;20553;-74
2022/05/06 03:08:29;;;;;;;11.87;10.63;;;8.40;99.90;;;;;;2612514;54;21440;-74
2022/05/06 03:10:55;;;;;;;14.70;10.43;;;8.40;99.90;;;;;;2611295;54;20387;-74
2022/05/06 03:13:22;;;;;;;11.50;9.77;;;8.30;99.90;;;;;;2611889;51;20864;-74
2022/05/06 03:15:52;;;;;;;10.57;9.47;;;8.30;99.90;;;;;;2612540;47;20466;-80
2022/05/06 03:18:18;;;;;;;11.13;10.03;;;8.20;99.90;;;;;;2612862;54;20410;-80
2022/05/06 03:20:45;;;;;;;14.10;10.80;;;8.30;99.90;;;;;;2612812;54;20418;-80
2022/05/06 03:23:14;;;;;;;11.80;10.60;;;8.20;99.90;;;;;;2612505;54;20185;-80
2022/05/06 03:25:40;;;;;;;11.00;9.80;;;8.20;99.90;;;;;;2613848;54;20390;-76
2022/05/06 03:28:09;;;;;;;12.60;9.60;;;8.30;99.90;;;;;;2613465;54;20460;-76
2022/05/06 03:30:44;;;;;;;11.57;10.37;;;8.30;99.90;;;;;;2613010;39;20603;-76
2022/05/06 03:33:19;;;;;;;11.37;9.60;;;8.20;99.90;;;;;;2612579;54;20398;-75
2022/05/06 03:35:46;;;;;;;18.83;10.83;;;8.20;99.90;;;;;;2611688;47;20392;-75
2022/05/06 03:38:13;;;;;;;16.87;10.40;;;8.10;99.90;;;;;;2612865;31;20843;-74
2022/05/06 03:40:43;;;;;;;11.37;10.17;;;8.10;99.90;;;;;;2611608;47;20455;-79
2022/05/06 03:43:09;;;;;;;15.77;11.03;;;8.10;99.90;;;;;;2612998;54;20384;-80
2022/05/06 03:45:39;;;;;;;14.77;11.60;;;8.10;99.90;;;;;;2613475;54;21257;-79
2022/05/06 03:48:06;;;;;;;12.80;11.47;;;8.10;99.90;;;;;;2613481;54;20430;-79
2022/05/06 03:53:20;;;;;;;13.33;10.30;;;8.00;99.90;;;;;;2612185;46;20827;-75
2022/05/06 03:55:50;;;;;;;13.07;10.83;;;8.10;99.90;;;;;;2613305;54;21000;-78
2022/05/06 03:58:16;;;;;;;14.27;11.40;;;8.00;99.90;;;;;;2612908;54;20399;-79
2022/05/06 04:00:42;;;;;;;15.90;12.00;;;7.90;99.90;;;;;;2612361;54;20410;-79
2022/05/06 04:03:10;;;;;;;14.13;12.17;;;7.90;99.90;;;;;;2613543;46;20451;-80
2022/05/06 04:05:37;;;;;;;18.50;12.70;;;7.90;99.90;;;;;;2612962;47;20500;-79
2022/05/06 04:08:05;;;;;;;13.63;12.20;;;7.90;99.90;;;;;;2612183;51;20395;-78
2022/05/06 04:10:32;;;;;;;18.37;12.17;;;8.00;99.90;;;;;;2612291;54;20935;-78
2022/05/06 04:12:59;;;;;;;12.77;11.23;;;7.90;99.90;;;;;;2612583;47;20422;-78
2022/05/06 04:15:25;;;;;;;13.33;11.80;;;7.80;99.90;;;;;;2613596;39;20850;-74
2022/05/06 04:17:53;;;;;;;13.80;10.67;;;7.80;99.90;;;;;;2611675;51;20459;-74
2022/05/06 04:25:51;;;;;;;15.27;12.43;;;8.00;99.90;;;;;;2612030;47;20399;-80
2022/05/06 04:28:19;;;;;;;14.70;11.70;;;8.10;99.90;;;;;;2612559;54;20548;-80
2022/05/06 04:30:51;;;;;;;21.10;15.63;;;8.10;99.90;;;;;;2612325;47;20411;-76
2022/05/06 04:33:19;;;;;;;19.73;14.20;;;8.10;99.90;;;;;;2613049;39;21222;-76
2022/05/06 04:35:48;;;;;;;19.20;14.20;;;8.00;99.90;;;;;;2613044;51;20417;-79
2022/05/06 04:38:17;;;;;;;20.40;14.10;;;8.20;99.90;;;;;;2613310;47;20508;-79
2022/05/06 04:40:43;;;;;;;15.73;12.50;;;8.40;99.90;;;;;;2612472;54;20385;-73
2022/05/06 04:43:10;;;;;;;24.70;14.57;;;8.40;99.90;;;;;;2611651;54;20505;-74
2022/05/06 04:45:40;;;;;;;23.10;14.43;;;8.60;99.90;;;;;;2613289;54;20406;-75
2022/05/06 04:48:11;;;;;;;23.93;14.70;;;8.60;99.90;;;;;;2612109;47;20526;-76
2022/05/06 04:50:42;;;;;;;20.47;15.57;;;8.70;99.90;;;;;;2611718;47;21037;-79
2022/05/06 04:53:11;;;;;;;17.23;15.07;;;8.80;99.90;;;;;;2613496;54;20411;-80
2022/05/06 04:55:48;;;;;;;18.93;15.60;;;8.60;99.90;;;;;;2613735;54;20402;-80
2022/05/06 04:58:17;;;;;;;15.10;12.93;;;8.70;99.90;;;;;;2613314;54;20457;-79
2022/05/06 05:00:44;;;;;;;14.57;11.30;;;8.80;99.90;;;;;;2612835;54;20399;-79
2022/05/06 05:03:10;;;;;;;12.30;11.00;;;8.80;99.90;;;;;;2613192;47;20413;-81
2022/05/06 05:05:37;;;;;;;13.87;11.47;;;9.00;99.90;;;;;;2613656;54;20994;-81
2022/05/06 05:08:08;;;;;;;22.73;11.10;;;9.10;99.90;;;;;;2612925;54;20411;-80
2022/05/06 05:10:36;;;;;;;15.40;10.90;;;9.10;99.90;;;;;;2613419;54;20861;-75
2022/05/06 05:13:02;;;;;;;14.40;11.07;;;9.10;99.90;;;;;;2610054;54;20404;-76
2022/05/06 05:15:32;;;;;;;13.80;11.27;;;9.20;99.90;;;;;;2613254;39;20822;-73
2022/05/06 05:17:58;;;;;;;16.13;12.30;;;9.50;99.90;;;;;;2610557;54;20504;-74
2022/05/06 05:20:25;;;;;;;10.70;9.60;;;9.70;99.90;;;;;;2611861;54;20934;-81
2022/05/06 05:22:54;;;;;;;10.80;9.77;;;10.00;99.90;;;;;;2611843;54;20399;-80
2022/05/06 05:25:19;;;;;;;13.57;10.23;;;10.20;99.90;;;;;;2613441;54;20983;-81
2022/05/06 05:27:46;;;;;;;13.60;11.60;;;10.50;99.90;;;;;;2612557;51;20403;-80
2022/05/06 05:30:22;;;;;;;13.60;9.63;;;10.70;99.90;;;;;;2612741;47;20390;-82
2022/05/06 05:32:48;;;;;;;10.97;9.87;;;11.20;99.90;;;;;;2614260;54;20468;-80
2022/05/06 05:35:15;;;;;;;10.10;8.97;;;11.60;99.90;;;;;;2613208;47;20155;-79
2022/05/06 05:37:49;;;;;;;11.57;10.33;;;11.90;99.90;;;;;;2612101;47;20395;-77
2022/05/06 05:40:15;;;;;;;13.20;10.70;;;12.30;99.90;;;;;;2612087;54;20995;-76
2022/05/06 05:42:41;;;;;;;10.20;9.20;;;12.60;99.90;;;;;;2612088;39;20492;-77
2022/05/06 05:50:44;;;;;;;19.50;11.17;;;13.00;99.90;;;;;;2610809;47;20399;-74
2022/05/06 05:53:12;;;;;;;11.30;10.27;;;13.00;99.90;;;;;;2610983;47;20406;-74
2022/05/06 05:55:40;;;;;;;11.73;10.30;;;13.20;99.30;;;;;;2628496;36;21021;-75
2022/05/06 05:58:10;;;;;;;17.23;11.53;;;13.40;97.30;;;;;;2610924;39;21139;-75
2022/05/06 06:00:37;;;;;;;15.93;10.80;;;13.80;94.90;;;;;;2610853;54;20523;-78
2022/05/06 06:03:04;;;;;;;12.47;11.37;;;14.40;85.40;;;;;;2610799;54;20400;-77
2022/05/06 06:05:36;;;;;;;13.73;12.37;;;14.50;82.30;;;;;;2611854;54;20416;-76
2022/05/06 06:08:04;;;;;;;12.07;9.83;;;14.70;79.80;;;;;;2612473;54;20408;-78
2022/05/06 06:10:35;;;;;;;11.77;10.30;;;15.20;72.60;;;;;;2611898;51;20938;-76
2022/05/06 06:13:06;;;;;;;12.73;11.43;;;15.30;68.80;;;;;;2612806;47;20419;-78
2022/05/06 06:15:36;;;;;;;13.93;12.57;;;15.50;66.10;;;;;;2611738;47;20447;-79
2022/05/06 06:18:02;;;;;;;12.10;10.47;;;15.70;61.90;;;;;;2612068;54;20402;-77
2022/05/06 06:20:29;;;;;;;12.93;10.20;;;16.00;58.00;;;;;;2610642;46;20401;-79
2022/05/06 06:22:55;;;;;;;14.67;10.37;;;16.30;54.70;;;;;;2612144;54;20406;-76
2022/05/06 06:25:22;;;;;;;11.77;10.63;;;16.80;49.60;;;;;;2612559;54;20406;-77
2022/05/06 06:27:50;;;;;;;14.00;11.17;;;17.20;44.20;;;;;;2611454;54;20414;-77
2022/05/06 06:30:17;;;;;;;14.67;11.93;;;16.70;46.10;;;;;;2609840;54;20401;-77
2022/05/06 06:32:43;;;;;;;13.53;11.57;;;16.90;45.40;;;;;;2610656;39;20906;-78
2022/05/06 06:35:11;;;;;;;15.07;12.40;;;17.40;44.30;;;;;;2611869;54;20874;-78
2022/05/06 06:37:46;;;;;;;15.10;11.87;;;18.10;35.60;;;;;;2610989;46;20407;-78
2022/05/06 06:40:13;;;;;;;15.83;11.50;;;18.40;33.40;;;;;;2611032;54;20480;-78
2022/05/06 06:42:42;;;;;;;16.43;11.97;;;18.70;32.20;;;;;;2611606;47;20405;-77
2022/05/06 06:45:31;;;;;;;13.40;12.00;;;19.10;28.60;;;;;;2611122;47;20443;-78
2022/05/06 06:48:12;;;;;;;12.90;11.80;;;19.00;25.80;;;;;;2611781;47;20457;-80
2022/05/06 06:50:44;;;;;;;15.70;14.30;;;19.00;27.60;;;;;;2612425;39;20828;-78
2022/05/06 06:53:22;;;;;;;18.10;13.10;;;19.20;27.00;;;;;;2611256;47;21519;-79
2022/05/06 06:55:49;;;;;;;15.70;14.10;;;19.50;20.60;;;;;;2612457;54;20417;-78
2022/05/06 06:58:21;;;;;;;14.50;12.60;;;19.30;18.60;;;;;;2612263;54;20458;-80
2022/05/06 07:00:50;;;;;;;14.77;13.20;;;18.80;14.50;;;;;;2611586;39;20437;-79
2022/05/06 07:03:36;;;;;;;15.97;13.40;;;18.60;18.40;;;;;;2612648;47;20503;-79
2022/05/06 07:11:56;;;;;;;14.33;12.83;;;19.70;11.70;;;;;;2611867;54;20415;-81
2022/05/06 07:14:29;;;;;;;16.33;14.73;;;20.50;4.40;;;;;;2611079;47;20455;-80
2022/05/06 07:16:58;;;;;;;15.80;13.90;;;20.70;4.10;;;;;;2612240;54;20472;-78
2022/05/06 07:19:30;;;;;;;14.13;12.30;;;20.30;3.80;;;;;;2611119;54;20407;-77
2022/05/06 07:22:00;;;;;;;13.87;12.37;;;20.50;1.00;;;;;;2612180;54;20496;-80
2022/05/06 07:24:34;;;;;;;19.03;12.90;;;20.70;1.00;;;;;;2611535;54;20411;-78
2022/05/06 07:27:04;;;;;;;20.20;13.40;;;21.40;1.00;;;;;;2610987;54;20391;-79
2022/05/06 07:29:36;;;;;;;12.83;11.30;;;21.60;1.00;;;;;;2611272;54;20426;-78
2022/05/06 07:32:12;;;;;;;14.60;12.33;;;21.50;1.00;;;;;;2611933;54;20395;-78
2022/05/06 07:34:42;;;;;;;15.87;11.70;;;21.70;1.00;;;;;;2612105;54;20391;-77
2022/05/06 07:37:12;;;;;;;13.20;11.90;;;22.20;1.00;;;;;;2611753;54;20423;-78
2022/05/06 07:39:44;;;;;;;15.90;12.13;;;22.00;1.00;;;;;;2610590;54;20967;-77
2022/05/06 07:42:13;;;;;;;15.30;11.80;;;21.60;1.00;;;;;;2611531;47;20372;-78
2022/05/06 07:44:41;;;;;;;15.83;12.87;;;22.00;1.00;;;;;;2611470;47;20439;-78
2022/05/06 07:47:08;;;;;;;12.30;11.10;;;22.70;1.00;;;;;;2611898;54;20419;-79
2022/05/06 07:49:48;;;;;;;14.10;12.60;;;22.60;1.00;;;;;;2611051;54;20442;-77
2022/05/06 07:52:14;;;;;;;15.60;12.37;;;22.40;1.00;;;;;;2612176;54;20462;-78
2022/05/06 07:54:47;;;;;;;17.13;11.93;;;23.00;1.00;;;;;;2612943;46;20447;-78
2022/05/06 07:57:18;;;;;;;15.70;14.40;;;23.30;1.00;;;;;;2612107;54;20614;-77
2022/05/06 07:59:45;;;;;;;13.73;11.80;;;23.20;1.00;;;;;;2612158;54;21242;-78
2022/05/06 08:05:08;;;;;;;14.07;12.67;;;23.10;1.00;;;;;;2612920;39;21119;-77
2022/05/06 08:07:54;;;;;;;14.50;12.83;;;23.00;1.00;;;;;;2611654;47;20401;-79
2022/05/06 08:10:31;;;;;;;13.80;12.40;;;23.30;1.00;;;;;;2612017;54;20409;-78
2022/05/06 08:13:20;;;;;;;14.87;13.13;;;23.90;1.00;;;;;;2610607;54;20403;-79
2022/05/06 08:15:58;;;;;;;;;;;;;;;;;;;;;
2022/05/06 08:18:25;;;;;;;13.90;12.53;;;24.10;1.00;;;;;;2612156;54;20414;-79
2022/05/06 08:20:52;;;;;;;16.40;12.30;;;24.10;1.00;;;;;;2611726;47;20397;-79
2022/05/06 08:23:29;;;;;;;14.87;12.63;;;23.70;1.00;;;;;;2612461;54;20462;-76
2022/05/06 08:25:55;;;;;;;13.90;12.70;;;23.90;1.00;;;;;;2609312;47;20880;-79
2022/05/06 08:28:23;;;;;;;15.80;14.13;;;24.30;1.00;;;;;;2611735;54;20432;-79
2022/05/06 08:30:50;;;;;;;15.23;13.43;;;24.20;1.00;;;;;;2611708;54;20420;-78
2022/05/06 08:33:17;;;;;;;16.27;14.53;;;24.00;1.00;;;;;;2611777;47;20393;-78
2022/05/06 08:35:49;;;;;;;14.57;13.07;;;24.50;1.00;;;;;;2613284;39;20801;-77
2022/05/06 08:38:16;;;;;;;17.37;15.07;;;24.80;1.00;;;;;;2613101;54;20410;-78
2022/05/06 08:41:09;;;;;;;18.17;14.00;;;24.80;1.00;;;;;;2612345;54;20391;-78
2022/05/06 08:43:38;;;;;;;15.23;13.77;;;24.70;1.00;;;;;;2613145;54;20499;-80
2022/05/06 08:52:14;;;;;;;15.33;13.60;;;24.90;1.00;;;;;;2613551;54;20427;-79
2022/05/06 08:54:45;;;;;;;15.70;14.10;;;25.00;1.00;;;;;;2613623;31;20916;-77
2022/05/06 08:57:14;;;;;;;21.10;14.97;;;23.80;1.00;;;;;;2613527;54;20458;-78
2022/05/06 08:59:49;;;;;;;14.77;13.10;;;23.60;1.00;;;;;;2612231;46;20400;-79
2022/05/06 09:02:20;;;;;;;14.77;13.17;;;23.70;1.00;;;;;;2613655;54;20939;-78
2022/05/06 09:04:50;;;;;;;16.77;15.03;;;23.50;1.00;;;;;;2613047;54;20399;-80
2022/05/06 09:07:30;;;;;;;16.03;14.63;;;23.50;1.00;;;;;;2612440;54;20534;-79
2022/05/06 09:10:13;;;;;;;17.20;15.47;;;23.30;1.00;;;;;;2612255;54;20419;-77
2022/05/06 09:12:46;;;;;;;17.70;16.00;;;23.60;1.00;;;;;;2612594;54;20422;-79
2022/05/06 09:18:07;;;;;;;18.60;16.70;;;23.30;1.00;;;;;;2612333;54;20417;-77
2022/05/06 09:20:36;;;;;;;22.53;18.67;;;23.40;1.00;;;;;;2612006;54;20403;-78
2022/05/06 09:23:31;;;;;;;23.57;21.13;;;23.90;1.00;;;;;;2611357;54;20411;-79
2022/05/06 09:25:58;;;;;;;21.20;19.10;;;24.70;1.00;;;;;;2611475;54;20487;-78
2022/05/06 09:28:39;;;;;;;26.33;19.97;;;24.60;1.00;;;;;;2612502;54;20404;-78
2022/05/06 09:31:10;;;;;;;20.63;18.57;;;24.90;1.00;;;;;;2612026;54;20445;-79
2022/05/06 09:33:51;;;;;;;20.60;18.80;;;25.00;1.00;;;;;;2612734;54;20413;-82
2022/05/06 09:36:34;;;;;;;20.50;18.70;;;24.80;1.00;;;;;;2611270;46;20435;-78
2022/05/06 09:39:15;;;;;;;20.87;18.87;;;24.80;1.00;;;;;;2612791;54;20402;-77
2022/05/06 09:42:04;;;;;;;21.20;18.90;;;24.60;1.00;;;;;;2610772;47;20407;-79
2022/05/06 09:44:46;;;;;;;19.43;17.60;;;24.70;1.00;;;;;;2611343;54;20430;-77
2022/05/06 09:47:25;;;;;;;21.57;18.20;;;24.60;1.00;;;;;;2611742;54;20427;-77
2022/05/06 09:50:02;;;;;;;18.83;16.90;;;24.90;1.00;;;;;;2612762;54;20399;-78
2022/05/06 09:52:37;;;;;;;18.63;16.70;;;24.80;1.00;;;;;;2612946;54;20508;-77
2022/05/06 09:55:12;;;;;;;21.10;18.00;;;24.70;1.00;;;;;;2612354;54;20400;-79
2022/05/06 09:57:47;;;;;;;20.43;18.50;;;24.20;1.00;;;;;;2613276;46;20412;-77
2022/05/06 10:00:19;;;;;;;21.77;19.57;;;23.40;1.00;;;;;;2613329;54;20808;-77
2022/05/06 10:03:02;;;;;;;;;;;;;;;;;;;;;
2022/05/06 10:05:47;;;;;;;18.13;16.17;;;23.50;1.00;;;;;;2612579;54;20402;-75
2022/05/06 10:08:24;;;;;;;19.83;17.97;;;24.00;1.00;;;;;;2611544;39;20570;-77
2022/05/06 10:11:01;;;;;;;22.00;20.00;;;24.90;1.00;;;;;;2611838;54;20410;-76
2022/05/06 10:13:34;;;;;;;25.70;21.37;;;25.40;1.00;;;;;;2612725;54;20507;-77
2022/05/06 10:16:26;;;;;;;22.90;20.47;;;25.60;1.00;;;;;;2612776;54;20419;-78
2022/05/06 10:18:53;;;;;;;19.23;17.63;;;25.50;1.00;;;;;;2613116;54;20530;-78
2022/05/06 10:21:46;;;;;;;18.83;17.23;;;25.70;1.00;;;;;;2613451;54;20395;-77
2022/05/06 10:24:17;;;;;;;18.70;17.03;;;25.50;1.00;;;;;;2612447;54;20495;-76
2022/05/06 10:26:48;;;;;;;18.47;16.63;;;25.60;1.00;;;;;;2612112;54;20387;-77
2022/05/06 10:33:04;;;;;;;18.17;16.20;;;24.30;1.00;;;;;;2613500;54;21035;-78
2022/05/06 10:35:53;;;;;;;18.03;16.30;;;23.90;1.00;;;;;;2613450;47;20429;-77
2022/05/06 10:38:25;;;;;;;18.47;16.57;;;23.30;1.00;;;;;;2612483;54;20392;-76
2022/05/06 10:40:58;;;;;;;23.93;20.70;;;23.20;1.00;;;;;;2613235;39;20857;-77
2022/05/06 10:43:45;;;;;;;21.30;19.20;;;23.40;1.00;;;;;;2613268;54;20410;-79
2022/05/06 10:46:13;;;;;;;20.97;19.03;;;24.10;1.00;;;;;;2612580;54;20439;-77
2022/05/06 10:48:42;;;;;;;21.97;19.87;;;24.80;1.00;;;;;;2613480;54;21292;-76
2022/05/06 10:51:27;;;;;;;21.30;19.10;;;24.80;1.00;;;;;;2611323;46;20419;-77
2022/05/06 10:53:55;;;;;;;20.77;18.80;;;23.90;1.00;;;;;;2611338;54;20959;-77
2022/05/06 10:56:22;;;;;;;19.40;17.47;;;23.30;1.00;;;;;;2611723;46;20402;-77
2022/05/06 10:59:11;;;;;;;19.33;17.43;;;23.30;1.00;;;;;;2611657;39;20735;-79
2022/05/06 11:02:10;;;;;;;21.37;18.80;;;23.20;1.00;;;;;;2612912;54;20439;-77
2022/05/06 11:04:37;;;;;;;22.70;20.20;;;24.30;1.00;;;;;;2611941;39;20825;-77
2022/05/06 11:07:17;;;;;;;20.53;18.43;;;25.20;1.00;;;;;;2611858;47;20411;-76
2022/05/06 11:09:46;;;;;;;18.63;17.03;;;25.70;1.00;;;;;;2612245;54;20429;-78
2022/05/06 11:12:46;;;;;;;21.80;19.27;;;25.70;1.00;;;;;;2612655;54;20558;-77
2022/05/06 11:15:18;;;;;;;22.27;20.17;;;25.90;1.00;;;;;;2612680;47;20967;-76
2022/05/06 11:17:50;;;;;;;22.47;19.77;;;25.60;1.00;;;;;;2612251;47;20389;-77
2022/05/06 11:20:27;;;;;;;21.60;19.50;;;25.60;1.00;;;;;;2612982;54;20410;-76
2022/05/06 11:23:03;;;;;;;19.70;18.00;;;25.80;1.00;;;;;;2611485;47;20403;-78
2022/05/06 11:25:41;;;;;;;20.07;18.20;;;26.30;1.00;;;;;;2613082;54;20407;-76
2022/05/06 11:28:24;;;;;;;21.00;18.47;;;26.70;1.00;;;;;;2612293;54;20519;-78
2022/05/06 11:30:53;;;;;;;15.80;14.20;;;26.90;1.00;;;;;;2612592;54;20448;-77
2022/05/06 11:33:27;;;;;;;15.93;14.43;;;26.90;1.00;;;;;;2612340;47;20393;-77
2022/05/06 11:36:08;;;;;;;18.63;16.67;;;26.80;1.00;;;;;;2611930;39;20780;-76
2022/05/06 11:38:36;;;;;;;16.73;15.20;;;26.60;1.00;;;;;;2612563;54;20435;-77
2022/05/06 11:41:10;;;;;;;18.83;17.03;;;26.40;1.00;;;;;;2611762;54;20431;-74
2022/05/06 11:43:41;;;;;;;20.20;18.10;;;26.10;1.00;;;;;;2611611;54;20400;-76
2022/05/06 11:49:14;;;;;;;18.63;16.73;;;24.70;1.00;;;;;;2611887;54;20408;-76
2022/05/06 11:52:03;;;;;;;18.20;16.50;;;23.90;1.00;;;;;;2612837;54;20426;-79
2022/05/06 11:54:41;;;;;;;18.17;16.53;;;23.10;1.00;;;;;;2612132;54;20419;-76
2022/05/06 11:57:10;;;;;;;15.40;13.90;;;22.70;1.00;;;;;;2610891;47;20405;-78
2022/05/06 11:59:37;;;;;;;16.80;15.30;;;22.30;1.00;;;;;;2609945;54;20500;-76
2022/05/06 12:02:11;;;;;;;16.90;15.40;;;22.10;1.00;;;;;;2610403;54;20410;-79
2022/05/06 12:04:40;;;;;;;15.30;14.00;;;22.70;1.00;;;;;;2611333;54;20407;-77
2022/05/06 12:07:07;;;;;;;15.13;13.83;;;23.60;1.00;;;;;;2612101;54;20431;-77
2022/05/06 12:09:44;;;;;;;14.50;13.40;;;24.40;1.00;;;;;;2611683;46;20403;-78
2022/05/06 12:12:26;;;;;;;16.80;15.30;;;24.70;1.00;;;;;;2612361;54;20396;-78
2022/05/06 12:15:15;;;;;;;15.40;14.10;;;24.90;1.00;;;;;;2612893;54;20772;-75
2022/05/06 12:17:46;;;;;;;17.20;15.60;;;24.50;1.00;;;;;;2611753;47;20438;-77
2022/05/06 12:20:42;;;;;;;19.07;17.03;;;24.00;1.00;;;;;;2611112;47;20530;-76
2022/05/06 12:23:15;;;;;;;17.57;16.10;;;23.20;1.00;;;;;;2611728;54;20403;-75
2022/05/06 12:25:42;;;;;;;16.33;14.60;;;23.10;1.00;;;;;;2613234;54;20404;-77
2022/05/06 12:28:32;;;;;;;;;;;;;;;;;;;;;
2022/05/06 12:31:02;;;;;;;20.00;17.90;;;23.10;1.00;;;;;;2614432;46;20993;-76
2022/05/06 12:33:47;;;;;;;15.43;13.87;;;23.00;1.00;;;;;;2614686;39;20853;-75
2022/05/06 12:36:22;;;;;;;19.23;17.23;;;23.10;1.00;;;;;;2612985;46;20407;-76
2022/05/06 12:38:55;;;;;;;18.00;16.10;;;23.00;1.00;;;;;;2612057;39;20616;-77
2022/05/06 12:41:38;;;;;;;17.40;15.73;;;23.10;1.00;;;;;;2611829;46;20428;-77
2022/05/06 12:44:36;;;;;;;16.93;15.33;;;24.10;1.00;;;;;;2613163;54;20446;-77
2022/05/06 12:50:06;;;;;;;16.67;15.27;;;24.00;1.00;;;;;;2613519;54;20398;-76
2022/05/06 12:52:42;;;;;;;14.73;13.40;;;23.80;1.00;;;;;;2613087;54;20400;-77
2022/05/06 12:55:19;;;;;;;21.23;16.10;;;23.50;1.00;;;;;;2613333;39;20802;-77
2022/05/06 12:57:49;;;;;;;17.60;15.53;;;23.60;1.00;;;;;;2613648;54;20395;-77
2022/05/06 13:00:33;;;;;;;15.43;13.80;;;23.20;1.00;;;;;;2612669;54;20407;-77
2022/05/06 13:03:07;;;;;;;15.43;14.07;;;23.00;1.00;;;;;;2612863;54;20399;-78
2022/05/06 13:05:36;;;;;;;17.20;15.50;;;22.80;1.00;;;;;;2613884;54;20415;-76
2022/05/06 13:08:08;;;;;;;16.57;14.40;;;22.80;1.00;;;;;;2612467;46;20454;-79
2022/05/06 13:10:55;;;;;;;16.77;15.03;;;23.00;1.00;;;;;;2612511;39;20804;-77
2022/05/06 13:13:30;;;;;;;15.47;13.93;;;23.10;1.00;;;;;;2611063;54;20421;-78
2022/05/06 13:15:59;;;;;;;18.00;16.20;;;23.00;1.00;;;;;;2611566;47;20577;-76
2022/05/06 13:18:28;;;;;;;20.03;17.20;;;22.80;1.00;;;;;;2613160;54;20422;-77
2022/05/06 13:20:54;;;;;;;18.10;16.30;;;22.70;1.00;;;;;;2612064;47;20451;-77
2022/05/06 13:23:21;;;;;;;19.60;17.70;;;22.50;1.00;;;;;;2612571;54;20388;-77
2022/05/06 13:25:51;;;;;;;17.63;15.93;;;22.60;1.00;;;;;;2611814;54;20403;-79
2022/05/06 13:28:29;;;;;;;17.60;15.80;;;22.70;1.00;;;;;;2610686;54;20404;-76
2022/05/06 13:30:58;;;;;;;17.13;15.50;;;22.60;1.00;;;;;;2610775;46;20435;-77
2022/05/06 13:33:27;;;;;;;18.63;16.90;;;22.90;1.00;;;;;;2610536;54;20501;-77
2022/05/06 13:36:00;;;;;;;19.80;17.80;;;23.40;1.00;;;;;;2611660;54;20404;-79
2022/05/06 13:38:30;;;;;;;19.20;17.53;;;23.80;1.00;;;;;;2611672;54;20414;-76
2022/05/06 13:41:24;;;;;;;17.87;16.27;;;24.00;1.00;;;;;;2609929;54;20520;-79
2022/05/06 13:43:56;;;;;;;18.37;16.43;;;23.80;1.00;;;;;;2611233;39;20578;-77
2022/05/06 13:46:32;;;;;;;20.40;18.30;;;24.40;1.00;;;;;;2611252;54;20392;-78
2022/05/06 13:52:03;;;;;;;18.63;17.00;;;23.70;1.00;;;;;;2608445;39;20782;-78
2022/05/06 13:54:40;;;;;;;18.87;17.07;;;23.70;1.00;;;;;;2609821;39;20825;-77
2022/05/06 13:59:58;;;;;;;20.67;18.80;;;23.10;1.00;;;;;;2608012;54;20418;-78